Airfield :
LOGIN :

Register | Disclaimer

   EN    FR    IT 

 










Legend :    VFR   Marginal VFR   IFR   Intensive IFR   Very Intensive IFR
Visi :
Ceiling :
>= 8 km
>= 3000ft
5 to 8 km
1000 to 3000 ft
1500m to 5 km
500 to 1000 ft
800 to 1500m
200 to 500 ft
< 800m
< 200 ft
Symbols :   Thunderstorms  Fog  Heavy snow  Heavy precipitations  Wind > 20 kt
SIGMETs :     Misc.  Thunderstorms  Icing  Turbulence  Mountain Waves  Volcanic Ashes







- Airport Elevation : 489 ft
- IATA code : GDN


EPGD - Gdansk

CURRENT METAR :
  • 241700Z 29014KT 9999 FEW045TCU 08/02 Q1017

EXPIRED METARs :
  • 241630Z 29013KT 9999 FEW042CB 08/02 Q1017
  • 241600Z 31014KT 9999 FEW017 SCT038CB 09/01 Q1016
  • 241530Z 30011KT 9999 FEW026 SCT033CB 10/03 Q1016
  • 241500Z 30014KT 9999 FEW014 SCT035CB 09/03 Q1016
  • 241430Z 34015KT 9999 SCT042 11/03 Q1015

TAF TAF EPGD
Valid from the 24 at 18:00 until the 25 at 18:00 UTC


241730Z 2418/2518 31012KT 9999 SCT040
TEMPO 2418/2506 SHRA BKN025CB
PROB40
TEMPO 2509/2515 31015G25KT
No reported NOTAMs for that airfield.



MET'MAP, your aeronautical weather chart ! - Copyright ORBIFLY December 2007 - Disclaimer

ORBIFLY MET'MAP TEAM :

Programming & Development : Alexandra Zaïnal
Concept & Development : Baudouin d'Aumeries
Co-Development & Prog : Marc-Olivier Méhu
Technical & hardware support : Manuel Goepfert

Contact : metmap@orbifly.com




SOURCES & CREDITS :

   NOAA